Time;durP1;ratioP1;P1;durP2;ratioP2;P2;SDS_P1;SDS_P2;PMS_P1;PMS_P2;Temp;Humidity;BMP_temperature;BMP_pressure;BME280_temperature;BME280_humidity;BME280_pressure;Samples;Min_cycle;Max_cycle;Signal;HPM_P1;HPM_P2
2022/11/12 00:00:31;;;;;;;11.37;5.30;;;;;;;;;;5074944;28;20541;-88
2022/11/12 00:03:54;;;;;;;36.13;5.83;;;;;;;;;;5074812;28;20179;-88
2022/11/12 00:07:17;;;;;;;28.70;5.60;;;;;;;;;;5084030;28;20206;-88
2022/11/12 00:10:39;;;;;;;35.57;5.53;;;;;;;;;;5074723;28;20191;-88
2022/11/12 00:14:01;;;;;;;9.63;5.53;;;;;;;;;;5074634;28;20179;-88
2022/11/12 00:17:24;;;;;;;22.57;5.67;;;;;;;;;;5074842;28;20187;-88
2022/11/12 00:20:46;;;;;;;45.87;5.43;;;;;;;;;;5086389;28;20183;-88
2022/11/12 00:24:09;;;;;;;20.80;4.83;;;;;;;;;;5074651;28;20176;-88
2022/11/12 00:27:32;;;;;;;54.17;6.30;;;;;;;;;;5074460;28;20210;-88
2022/11/12 00:30:54;;;;;;;8.07;5.20;;;;;;;;;;5074425;28;20183;-88
2022/11/12 00:34:17;;;;;;;27.03;4.70;;;;;;;;;;5074574;28;20179;-88
2022/11/12 00:37:40;;;;;;;5.27;4.43;;;;;;;;;;5074944;28;20179;-88
2022/11/12 00:41:02;;;;;;;33.00;5.80;;;;;;;;;;5086139;28;20183;-88
2022/11/12 00:44:25;;;;;;;34.70;6.37;;;;;;;;;;5074513;28;20175;-88
2022/11/12 00:47:47;;;;;;;41.07;6.00;;;;;;;;;;5121740;22;20227;-88
2022/11/12 00:51:10;;;;;;;16.13;4.53;;;;;;;;;;5082847;28;20183;-88
2022/11/12 00:54:32;;;;;;;22.47;4.63;;;;;;;;;;5095012;28;20641;-89
2022/11/12 00:57:57;;;;;;;12.27;4.53;;;;;;;;;;5068854;28;20219;-88
2022/11/12 01:01:20;;;;;;;13.37;4.67;;;;;;;;;;5062510;28;20183;-88
2022/11/12 01:04:42;;;;;;;21.73;4.80;;;;;;;;;;5062947;28;20188;-88
2022/11/12 01:08:05;;;;;;;8.60;5.03;;;;;;;;;;5075470;28;20208;-88
2022/11/12 01:11:29;;;;;;;22.97;5.27;;;;;;;;;;5062759;28;20184;-88
2022/11/12 01:14:51;;;;;;;38.37;5.70;;;;;;;;;;5074697;28;20517;-88
2022/11/12 01:18:13;;;;;;;10.40;4.90;;;;;;;;;;5062275;28;20626;-89
2022/11/12 01:21:39;;;;;;;33.10;5.57;;;;;;;;;;5062358;28;20654;-88
2022/11/12 01:25:02;;;;;;;14.97;5.60;;;;;;;;;;5062233;28;20180;-88
2022/11/12 01:28:24;;;;;;;18.83;4.57;;;;;;;;;;5064369;28;20543;-88
2022/11/12 01:31:47;;;;;;;33.13;5.13;;;;;;;;;;5063992;28;20183;-88
2022/11/12 01:35:10;;;;;;;6.03;5.43;;;;;;;;;;5063908;28;20529;-88
2022/11/12 01:38:34;;;;;;;29.10;5.90;;;;;;;;;;5064343;28;20172;-88
2022/11/12 01:41:56;;;;;;;6.87;5.87;;;;;;;;;;5064447;28;20176;-88
2022/11/12 01:45:19;;;;;;;7.00;5.70;;;;;;;;;;5081275;28;20180;-88
2022/11/12 01:48:52;;;;;;;23.63;5.73;;;;;;;;;;5069621;28;20199;-88
2022/11/12 01:52:33;;;;;;;7.83;5.13;;;;;;;;;;5070856;28;20622;-88
2022/11/12 01:55:57;;;;;;;8.73;4.90;;;;;;;;;;5070099;28;20585;-88
2022/11/12 01:59:27;;;;;;;13.30;5.27;;;;;;;;;;5069749;28;20176;-88
2022/11/12 02:02:56;;;;;;;13.23;4.90;;;;;;;;;;5059843;28;20525;-88
2022/11/12 02:06:19;;;;;;;16.37;5.27;;;;;;;;;;5067698;28;20211;-88
2022/11/12 02:09:42;;;;;;;29.17;5.37;;;;;;;;;;5079526;28;20484;-88
2022/11/12 02:16:47;;;;;;;5.43;4.93;;;;;;;;;;5097407;28;20214;-88
2022/11/12 02:20:12;;;;;;;8.53;5.40;;;;;;;;;;5084763;28;20175;-88
2022/11/12 02:23:36;;;;;;;15.47;4.77;;;;;;;;;;5064046;28;20180;-88
2022/11/12 02:26:59;;;;;;;11.80;5.10;;;;;;;;;;5054363;28;20563;-88
2022/11/12 02:30:37;;;;;;;5.17;4.20;;;;;;;;;;5075846;28;20517;-88
2022/11/12 02:34:00;;;;;;;10.70;4.93;;;;;;;;;;5065539;28;20639;-88
2022/11/12 02:37:23;;;;;;;9.03;4.83;;;;;;;;;;5062229;28;20220;-88
2022/11/12 02:40:45;;;;;;;5.37;4.83;;;;;;;;;;5064962;28;20224;-88
2022/11/12 02:44:08;;;;;;;10.50;5.27;;;;;;;;;;5074119;28;20191;-88
2022/11/12 02:47:30;;;;;;;14.23;4.70;;;;;;;;;;5061941;28;20241;-88
2022/11/12 02:50:53;;;;;;;10.20;4.83;;;;;;;;;;5062055;28;20187;-88
2022/11/12 02:54:16;;;;;;;25.50;5.40;;;;;;;;;;5062023;28;20507;-88
2022/11/12 02:57:39;;;;;;;9.10;4.77;;;;;;;;;;5064437;28;20223;-88
2022/11/12 03:01:01;;;;;;;7.27;5.00;;;;;;;;;;5065774;28;20183;-88
2022/11/12 03:04:24;;;;;;;23.77;5.30;;;;;;;;;;5065440;28;20180;-88
2022/11/12 03:07:46;;;;;;;26.37;4.97;;;;;;;;;;5056543;28;20219;-88
2022/11/12 03:11:11;;;;;;;18.63;5.63;;;;;;;;;;5058471;28;20492;-88
2022/11/12 03:14:34;;;;;;;25.13;5.50;;;;;;;;;;5066288;28;20176;-88
2022/11/12 03:17:58;;;;;;;12.47;5.33;;;;;;;;;;5068500;28;20555;-88
2022/11/12 03:21:20;;;;;;;8.00;5.23;;;;;;;;;;5078331;28;20180;-88
2022/11/12 03:24:42;;;;;;;8.87;4.70;;;;;;;;;;5077935;28;20180;-88
2022/11/12 03:28:11;;;;;;;25.87;5.23;;;;;;;;;;5056585;28;20535;-88
2022/11/12 03:31:34;;;;;;;47.50;5.77;;;;;;;;;;5068187;28;20175;-88
2022/11/12 03:34:57;;;;;;;65.67;5.97;;;;;;;;;;5067822;28;20180;-88
2022/11/12 03:38:19;;;;;;;62.10;6.33;;;;;;;;;;5065079;28;20179;-88
2022/11/12 03:41:42;;;;;;;34.30;4.43;;;;;;;;;;5056054;28;20183;-88
2022/11/12 03:45:05;;;;;;;3.97;3.57;;;;;;;;;;5064980;28;20507;-88
2022/11/12 03:48:28;;;;;;;78.40;6.00;;;;;;;;;;5064378;28;20211;-88
2022/11/12 03:51:50;;;;;;;14.47;4.47;;;;;;;;;;5077470;28;20184;-88
2022/11/12 03:55:15;;;;;;;112.07;7.30;;;;;;;;;;5064365;28;20175;-88
2022/11/12 03:58:37;;;;;;;10.83;4.87;;;;;;;;;;5055434;28;20176;-88
2022/11/12 04:02:00;;;;;;;4.93;4.30;;;;;;;;;;5064581;28;20180;-88
2022/11/12 04:09:06;;;;;;;107.60;6.23;;;;;;;;;;5063780;28;20203;-88
2022/11/12 04:23:39;;;;;;;216.73;9.90;;;;;;;;;;5076644;28;20191;-88
2022/11/12 04:27:02;;;;;;;86.30;5.73;;;;;;;;;;5063442;28;20704;-89
2022/11/12 04:30:24;;;;;;;4.57;4.13;;;;;;;;;;5063781;28;20499;-88
2022/11/12 04:33:47;;;;;;;136.37;6.43;;;;;;;;;;5075714;28;20184;-88
2022/11/12 04:37:09;;;;;;;18.60;4.10;;;;;;;;;;5066291;28;20614;-88
2022/11/12 04:47:54;;;;;;;24.23;4.60;;;;;;;;;;5062903;28;20298;-88
2022/11/12 04:54:59;;;;;;;21.83;4.50;;;;;;;;;;5064548;28;20630;-88
2022/11/12 04:58:21;;;;;;;95.87;5.67;;;;;;;;;;5063880;28;20172;-88
2022/11/12 05:01:44;;;;;;;72.60;5.90;;;;;;;;;;5075886;28;20184;-88
2022/11/12 05:05:07;;;;;;;53.43;5.33;;;;;;;;;;5063913;28;20184;-88
2022/11/12 05:08:29;;;;;;;28.87;4.67;;;;;;;;;;5054590;28;20204;-88
2022/11/12 05:11:54;;;;;;;63.73;5.70;;;;;;;;;;5055643;28;20184;-88
2022/11/12 05:15:17;;;;;;;27.20;4.60;;;;;;;;;;5066956;28;20184;-88
2022/11/12 05:18:39;;;;;;;97.60;6.90;;;;;;;;;;5063280;28;20180;-88
2022/11/12 05:22:04;;;;;;;74.67;5.80;;;;;;;;;;5062786;28;20179;-87
2022/11/12 05:25:27;;;;;;;49.53;5.87;;;;;;;;;;5063352;28;20176;-87
2022/11/12 05:28:49;;;;;;;12.57;4.97;;;;;;;;;;5075368;28;20535;-88
2022/11/12 05:32:14;;;;;;;4.83;4.10;;;;;;;;;;5063534;28;20184;-88
2022/11/12 05:35:36;;;;;;;6.67;4.50;;;;;;;;;;5075091;28;20180;-87
2022/11/12 05:38:59;;;;;;;9.77;5.20;;;;;;;;;;5065264;28;20176;-88
2022/11/12 05:42:22;;;;;;;29.87;5.20;;;;;;;;;;5074945;28;20184;-88
2022/11/12 05:45:44;;;;;;;40.10;5.33;;;;;;;;;;5062649;28;20180;-87
2022/11/12 05:49:06;;;;;;;18.17;4.67;;;;;;;;;;5061909;28;20204;-88
2022/11/12 05:52:29;;;;;;;24.63;4.93;;;;;;;;;;5053398;28;20184;-88
2022/11/12 05:55:51;;;;;;;95.33;8.07;;;;;;;;;;5074209;28;20184;-88
2022/11/12 05:59:14;;;;;;;51.83;5.80;;;;;;;;;;5073746;28;20175;-87
2022/11/12 06:02:36;;;;;;;8.63;4.50;;;;;;;;;;5061799;28;20187;-88
2022/11/12 06:05:59;;;;;;;136.07;7.47;;;;;;;;;;5064988;28;20219;-88
2022/11/12 06:09:21;;;;;;;35.63;4.90;;;;;;;;;;5074880;28;20674;-86
2022/11/12 06:12:44;;;;;;;27.80;5.37;;;;;;;;;;5093707;28;20183;-88
2022/11/12 06:16:07;;;;;;;62.50;6.00;;;;;;;;;;5053088;28;20670;-89
2022/11/12 06:19:30;;;;;;;87.77;7.30;;;;;;;;;;5080355;28;20546;-88
2022/11/12 06:22:52;;;;;;;23.23;4.47;;;;;;;;;;5081876;28;20182;-88
2022/11/12 06:26:15;;;;;;;23.10;4.77;;;;;;;;;;5072425;28;20218;-88
2022/11/12 06:29:37;;;;;;;29.87;4.97;;;;;;;;;;5061608;28;20653;-88
2022/11/12 06:33:00;;;;;;;10.43;4.47;;;;;;;;;;5061285;28;20184;-88
2022/11/12 06:36:23;;;;;;;59.77;5.70;;;;;;;;;;5061333;28;20223;-88
2022/11/12 06:39:45;;;;;;;4.80;4.30;;;;;;;;;;5063996;28;20176;-88
2022/11/12 06:43:08;;;;;;;109.67;7.60;;;;;;;;;;5061390;28;20180;-88
2022/11/12 06:46:31;;;;;;;15.17;4.93;;;;;;;;;;5052060;28;20227;-87
2022/11/12 06:49:53;;;;;;;8.07;5.70;;;;;;;;;;5061391;28;20208;-87
2022/11/12 06:53:16;;;;;;;7.07;4.53;;;;;;;;;;5073818;28;20195;-88
2022/11/12 06:56:38;;;;;;;6.80;5.00;;;;;;;;;;5073184;28;20223;-88
2022/11/12 07:00:01;;;;;;;5.07;4.33;;;;;;;;;;5072864;28;20172;-88
2022/11/12 07:03:24;;;;;;;4.97;4.20;;;;;;;;;;5073348;28;20191;-88
2022/11/12 07:06:46;;;;;;;18.60;3.87;;;;;;;;;;5072418;28;20215;-88
2022/11/12 07:10:09;;;;;;;18.30;4.77;;;;;;;;;;5061184;28;20200;-88
2022/11/12 07:13:32;;;;;;;5.90;4.43;;;;;;;;;;5072538;28;20183;-88
2022/11/12 07:16:55;;;;;;;15.00;4.43;;;;;;;;;;5072469;28;20678;-88
2022/11/12 07:20:17;;;;;;;124.27;12.60;;;;;;;;;;5052140;28;20183;-89
2022/11/12 07:23:39;;;;;;;146.83;10.27;;;;;;;;;;5072423;28;20206;-89
2022/11/12 07:27:02;;;;;;;127.57;8.00;;;;;;;;;;5063430;28;20218;-89
2022/11/12 07:30:24;;;;;;;38.47;4.53;;;;;;;;;;5063649;28;20207;-88
2022/11/12 07:33:47;;;;;;;161.90;8.07;;;;;;;;;;5052325;28;20188;-88
2022/11/12 07:37:10;;;;;;;46.83;4.37;;;;;;;;;;5063219;28;20219;-89
2022/11/12 07:40:32;;;;;;;53.10;5.13;;;;;;;;;;5073072;28;20176;-90
2022/11/12 07:43:55;;;;;;;3.73;3.40;;;;;;;;;;5072512;28;20184;-89
2022/11/12 07:47:17;;;;;;;90.33;6.00;;;;;;;;;;5066393;28;20590;-89
2022/11/12 07:50:40;;;;;;;15.33;4.50;;;;;;;;;;5067047;28;20204;-89
2022/11/12 07:54:03;;;;;;;71.73;6.03;;;;;;;;;;5067363;28;20188;-89
2022/11/12 07:57:25;;;;;;;12.83;4.30;;;;;;;;;;5063768;28;20220;-89
2022/11/12 08:00:49;;;;;;;23.53;5.23;;;;;;;;;;5055151;28;20172;-90
2022/11/12 08:04:12;;;;;;;61.37;5.93;;;;;;;;;;5063992;28;20179;-89
2022/11/12 08:07:35;;;;;;;41.43;4.43;;;;;;;;;;5054704;28;20573;-89
2022/11/12 08:10:58;;;;;;;25.47;3.90;;;;;;;;;;5055078;28;20204;-89
2022/11/12 08:14:21;;;;;;;77.63;5.20;;;;;;;;;;5075733;28;20184;-89
2022/11/12 08:17:44;;;;;;;4.47;2.83;;;;;;;;;;5075364;28;20700;-89
2022/11/12 08:21:10;;;;;;;6.17;3.33;;;;;;;;;;5068843;28;20176;-91
2022/11/12 08:24:33;;;;;;;5.20;3.87;;;;;;;;;;5066377;28;20180;-90
2022/11/12 08:27:57;;;;;;;124.27;4.93;;;;;;;;;;5074769;28;20219;-89
2022/11/12 08:31:21;;;;;;;61.23;4.10;;;;;;;;;;5054600;28;20199;-90
2022/11/12 08:34:44;;;;;;;68.97;4.93;;;;;;;;;;5066127;28;20191;-89
2022/11/12 08:38:08;;;;;;;58.60;5.47;;;;;;;;;;5063795;28;20188;-89
2022/11/12 08:41:30;;;;;;;15.77;3.40;;;;;;;;;;5075372;28;20176;-89
2022/11/12 08:44:52;;;;;;;58.73;3.83;;;;;;;;;;5075682;28;20184;-89
2022/11/12 08:48:15;;;;;;;4.10;2.83;;;;;;;;;;5066405;28;20176;-89
2022/11/12 08:51:37;;;;;;;40.70;5.97;;;;;;;;;;5066527;28;20172;-89
2022/11/12 08:54:59;;;;;;;52.93;5.10;;;;;;;;;;5066067;28;20180;-89
2022/11/12 08:58:23;;;;;;;7.20;4.20;;;;;;;;;;5065962;28;20476;-89
2022/11/12 09:01:45;;;;;;;31.67;4.33;;;;;;;;;;5054389;28;20183;-89
2022/11/12 09:05:08;;;;;;;90.50;6.23;;;;;;;;;;5065762;28;20180;-89
2022/11/12 09:08:32;;;;;;;18.93;4.80;;;;;;;;;;5065826;28;20184;-90
2022/11/12 09:11:55;;;;;;;108.17;5.80;;;;;;;;;;5074739;28;20164;-89
2022/11/12 09:15:18;;;;;;;43.43;5.13;;;;;;;;;;5074315;28;20184;-89
2022/11/12 09:18:40;;;;;;;4.70;3.93;;;;;;;;;;5062974;28;20180;-89
2022/11/12 09:22:03;;;;;;;4.70;4.10;;;;;;;;;;5065452;28;20171;-89
2022/11/12 09:25:26;;;;;;;77.13;4.73;;;;;;;;;;5055384;28;20191;-90
2022/11/12 09:28:52;;;;;;;113.57;7.03;;;;;;;;;;5065764;28;20183;-89
2022/11/12 09:32:15;;;;;;;13.10;4.37;;;;;;;;;;5074491;28;20175;-89
2022/11/12 09:35:38;;;;;;;12.70;4.57;;;;;;;;;;5045608;28;20176;-88
2022/11/12 09:39:00;;;;;;;10.63;4.33;;;;;;;;;;5046352;28;20188;-91
2022/11/12 09:42:24;;;;;;;5.03;4.37;;;;;;;;;;5042373;28;20184;-92
2022/11/12 09:45:46;;;;;;;11.07;4.37;;;;;;;;;;5044706;28;20192;-91
2022/11/12 09:49:24;;;;;;;19.40;4.53;;;;;;;;;;5054367;28;20188;-89
2022/11/12 09:52:51;;;;;;;11.63;4.27;;;;;;;;;;5033709;28;20188;-86
2022/11/12 09:56:20;;;;;;;7.10;4.57;;;;;;;;;;5045973;28;20204;-89
2022/11/12 09:59:43;;;;;;;5.40;4.47;;;;;;;;;;5056213;28;20172;-89
2022/11/12 10:03:10;;;;;;;6.60;4.80;;;;;;;;;;5045026;28;20627;-89
2022/11/12 10:06:46;;;;;;;31.20;5.20;;;;;;;;;;5049721;28;20211;-89
2022/11/12 10:10:14;;;;;;;34.90;5.47;;;;;;;;;;5048984;28;20544;-90
2022/11/12 10:13:52;;;;;;;5.23;4.53;;;;;;;;;;5059472;28;20192;-88
2022/11/12 10:17:24;;;;;;;31.03;5.40;;;;;;;;;;5061250;28;20219;-90
2022/11/12 10:21:19;;;;;;;45.37;6.47;;;;;;;;;;5061949;28;20187;-87
2022/11/12 10:24:43;;;;;;;22.73;6.03;;;;;;;;;;5067128;28;20183;-87
2022/11/12 10:28:22;;;;;;;16.17;5.80;;;;;;;;;;5056935;28;20643;-87
2022/11/12 10:31:45;;;;;;;19.60;6.63;;;;;;;;;;5061095;28;20207;-87
2022/11/12 10:35:09;;;;;;;40.07;7.77;;;;;;;;;;5054742;28;20187;-87
2022/11/12 10:38:34;;;;;;;15.73;6.53;;;;;;;;;;5063241;28;20501;-88
2022/11/12 10:42:04;;;;;;;44.73;8.13;;;;;;;;;;5062823;28;20654;-87
2022/11/12 10:45:27;;;;;;;37.97;6.03;;;;;;;;;;5064120;28;20519;-86
2022/11/12 10:48:57;;;;;;;17.13;6.27;;;;;;;;;;5058104;28;20183;-88
2022/11/12 10:52:23;;;;;;;9.43;5.83;;;;;;;;;;5058021;28;20171;-87
2022/11/12 10:56:01;;;;;;;10.03;6.10;;;;;;;;;;5056993;28;20651;-85
2022/11/12 10:59:24;;;;;;;10.33;5.83;;;;;;;;;;5067411;28;20500;-87
2022/11/12 11:02:54;;;;;;;20.03;6.23;;;;;;;;;;5057121;28;20187;-87
2022/11/12 11:06:20;;;;;;;9.30;6.30;;;;;;;;;;5057767;28;20211;-88
2022/11/12 11:09:53;;;;;;;11.03;6.17;;;;;;;;;;5057641;28;20192;-88
2022/11/12 11:13:24;;;;;;;18.73;6.83;;;;;;;;;;5053071;28;20196;-88
2022/11/12 11:16:53;;;;;;;9.00;7.20;;;;;;;;;;5044059;28;20717;-88
2022/11/12 11:20:50;;;;;;;9.73;7.43;;;;;;;;;;5055796;28;20188;-88
2022/11/12 11:24:37;;;;;;;8.57;6.77;;;;;;;;;;5053896;28;20188;-89
2022/11/12 11:28:00;;;;;;;10.90;6.47;;;;;;;;;;5053704;28;20614;-88
2022/11/12 11:31:55;;;;;;;8.33;6.90;;;;;;;;;;5053694;28;20663;-88
2022/11/12 11:35:17;;;;;;;8.30;6.87;;;;;;;;;;5051489;28;20674;-88
2022/11/12 11:38:52;;;;;;;16.00;7.90;;;;;;;;;;5037068;28;20520;-88
2022/11/12 11:42:33;;;;;;;8.63;7.03;;;;;;;;;;5060272;28;20176;-88
2022/11/12 11:46:21;;;;;;;7.87;6.37;;;;;;;;;;5062006;28;20208;-89
2022/11/12 11:49:50;;;;;;;6.63;5.90;;;;;;;;;;5053155;28;20185;-89
2022/11/12 11:53:40;;;;;;;8.20;6.33;;;;;;;;;;5059416;28;20530;-90
2022/11/12 11:57:11;;;;;;;8.30;6.50;;;;;;;;;;5055451;28;20227;-89
2022/11/12 12:00:49;;;;;;;7.70;6.80;;;;;;;;;;5050531;28;20180;-90
2022/11/12 12:04:44;;;;;;;11.73;7.77;;;;;;;;;;5056510;28;20667;-90
2022/11/12 12:08:57;;;;;;;7.80;6.60;;;;;;;;;;5043863;28;20187;-90
2022/11/12 12:12:34;;;;;;;7.77;6.63;;;;;;;;;;5000447;28;20205;-87
2022/11/12 12:16:09;;;;;;;7.47;6.70;;;;;;;;;;5013841;28;20193;-87
2022/11/12 12:20:02;;;;;;;7.33;6.40;;;;;;;;;;5040651;28;20208;-88
2022/11/12 12:23:50;;;;;;;9.30;7.33;;;;;;;;;;5035640;28;20180;-88
2022/11/12 12:27:19;;;;;;;8.33;7.30;;;;;;;;;;5046710;28;20212;-88
2022/11/12 12:30:49;;;;;;;9.30;8.03;;;;;;;;;;5044204;28;20199;-88
2022/11/12 12:34:37;;;;;;;9.43;8.33;;;;;;;;;;5035161;28;20181;-89
2022/11/12 12:38:17;;;;;;;10.37;8.47;;;;;;;;;;5046627;28;20212;-89
2022/11/12 12:42:00;;;;;;;9.63;8.40;;;;;;;;;;5043891;28;20611;-90
2022/11/12 12:45:35;;;;;;;9.87;8.87;;;;;;;;;;5056261;28;20189;-89
2022/11/12 12:48:59;;;;;;;9.33;8.17;;;;;;;;;;5035997;28;20184;-89
2022/11/12 12:52:21;;;;;;;10.93;9.70;;;;;;;;;;5044602;28;20204;-90
2022/11/12 12:55:47;;;;;;;11.13;9.67;;;;;;;;;;5056700;28;20189;-90
2022/11/12 12:59:18;;;;;;;10.77;9.03;;;;;;;;;;5079925;23;20231;-87
2022/11/12 13:02:55;;;;;;;10.00;8.67;;;;;;;;;;5061871;28;20195;-87
2022/11/12 13:06:23;;;;;;;11.60;10.37;;;;;;;;;;5058202;28;20187;-87
2022/11/12 13:09:47;;;;;;;10.57;9.53;;;;;;;;;;5033659;28;20227;-88
2022/11/12 13:13:16;;;;;;;11.00;9.70;;;;;;;;;;5015699;28;20178;-89
2022/11/12 13:16:51;;;;;;;10.77;9.20;;;;;;;;;;5023094;28;20185;-89
2022/11/12 13:20:13;;;;;;;12.93;9.23;;;;;;;;;;5034891;28;20516;-89
2022/11/12 13:24:05;;;;;;;11.57;9.87;;;;;;;;;;5015121;28;20181;-89
2022/11/12 13:27:43;;;;;;;10.70;9.37;;;;;;;;;;5029135;28;20188;-89
2022/11/12 13:31:25;;;;;;;13.13;10.03;;;;;;;;;;5016338;28;20209;-89
2022/11/12 13:34:47;;;;;;;10.90;9.80;;;;;;;;;;5016292;28;20560;-89
2022/11/12 13:38:16;;;;;;;9.93;8.73;;;;;;;;;;5025810;28;20217;-89
2022/11/12 13:45:27;;;;;;;12.00;9.27;;;;;;;;;;5023140;28;20181;-88
2022/11/12 13:48:50;;;;;;;9.60;7.63;;;;;;;;;;5033844;28;20216;-88
2022/11/12 13:52:14;;;;;;;8.97;8.07;;;;;;;;;;5022753;28;20279;-88
2022/11/12 13:55:47;;;;;;;10.13;8.23;;;;;;;;;;5014325;28;20181;-88
2022/11/12 13:59:14;;;;;;;10.10;9.03;;;;;;;;;;5022303;28;20228;-88
2022/11/12 14:02:59;;;;;;;9.83;8.67;;;;;;;;;;5022144;28;20177;-88
2022/11/12 14:06:35;;;;;;;9.07;8.03;;;;;;;;;;5013809;28;20169;-88
2022/11/12 14:10:16;;;;;;;9.97;8.97;;;;;;;;;;5013439;28;20177;-88
2022/11/12 14:14:07;;;;;;;13.73;9.30;;;;;;;;;;5021750;28;20189;-88
2022/11/12 14:17:41;;;;;;;13.30;9.83;;;;;;;;;;5021809;28;20185;-88
2022/11/12 14:21:15;;;;;;;9.80;8.67;;;;;;;;;;5021685;28;20176;-89
2022/11/12 14:24:38;;;;;;;10.70;9.20;;;;;;;;;;5012984;28;20181;-88
2022/11/12 14:28:01;;;;;;;13.27;10.63;;;;;;;;;;5012670;28;20687;-88
2022/11/12 14:31:24;;;;;;;14.03;11.17;;;;;;;;;;5012831;28;20655;-88
2022/11/12 14:34:47;;;;;;;13.23;11.23;;;;;;;;;;5012926;28;20189;-89
2022/11/12 14:38:28;;;;;;;14.80;11.63;;;;;;;;;;5012617;28;20216;-89
2022/11/12 14:41:53;;;;;;;15.33;11.73;;;;;;;;;;5021195;28;20173;-88
2022/11/12 14:45:17;;;;;;;19.63;11.77;;;;;;;;;;5021622;28;20181;-88
2022/11/12 14:48:52;;;;;;;15.77;11.77;;;;;;;;;;5021096;28;20224;-88
2022/11/12 14:52:19;;;;;;;15.20;11.90;;;;;;;;;;5021538;28;20209;-89
2022/11/12 14:56:08;;;;;;;16.13;12.03;;;;;;;;;;5037137;28;20181;-88
2022/11/12 14:59:31;;;;;;;15.00;12.63;;;;;;;;;;5036247;28;20228;-88
2022/11/12 15:02:55;;;;;;;15.70;11.80;;;;;;;;;;5027987;28;20177;-89
2022/11/12 15:06:30;;;;;;;14.40;11.30;;;;;;;;;;5025126;28;20177;-89
2022/11/12 15:09:53;;;;;;;14.40;12.00;;;;;;;;;;5016338;28;20184;-89
2022/11/12 15:13:19;;;;;;;16.80;11.57;;;;;;;;;;5036418;28;20177;-90
2022/11/12 15:16:42;;;;;;;13.67;11.17;;;;;;;;;;5026923;28;20201;-89
2022/11/12 15:20:13;;;;;;;85.27;31.83;;;;;;;;;;5024496;28;20181;-88
2022/11/12 15:23:35;;;;;;;26.53;15.30;;;;;;;;;;5027391;28;20200;-90
2022/11/12 15:27:01;;;;;;;15.20;12.30;;;;;;;;;;5047601;28;20184;-86
2022/11/12 15:30:26;;;;;;;17.27;13.80;;;;;;;;;;5055671;28;20173;-88
2022/11/12 15:33:49;;;;;;;16.57;13.20;;;;;;;;;;5032738;28;20201;-88
2022/11/12 15:37:17;;;;;;;19.07;13.67;;;;;;;;;;5036136;28;20181;-85
2022/11/12 15:40:44;;;;;;;21.13;14.87;;;;;;;;;;5024190;28;20188;-83
2022/11/12 15:44:09;;;;;;;17.23;13.90;;;;;;;;;;5035752;28;20185;-83
2022/11/12 15:47:31;;;;;;;18.33;14.63;;;;;;;;;;5036024;28;20632;-82
2022/11/12 15:50:54;;;;;;;18.77;15.00;;;;;;;;;;5023966;28;20515;-81
2022/11/12 15:54:17;;;;;;;17.47;14.80;;;;;;;;;;5015923;28;20185;-89
2022/11/12 15:58:14;;;;;;;20.13;14.90;;;;;;;;;;5026831;28;20185;-89
2022/11/12 16:02:07;;;;;;;21.40;16.60;;;;;;;;;;5024381;28;20509;-89
2022/11/12 16:05:30;;;;;;;26.47;17.67;;;;;;;;;;5023443;28;20547;-92
2022/11/12 16:08:52;;;;;;;17.37;14.57;;;;;;;;;;5052498;28;20227;-90
2022/11/12 16:12:15;;;;;;;24.10;16.23;;;;;;;;;;5056266;28;20563;-92
2022/11/12 16:15:37;;;;;;;34.37;17.13;;;;;;;;;;5047068;28;20196;-90
2022/11/12 16:19:00;;;;;;;23.13;16.33;;;;;;;;;;5035011;28;20224;-90
2022/11/12 16:22:22;;;;;;;23.13;16.00;;;;;;;;;;5035140;28;20176;-90
2022/11/12 16:25:45;;;;;;;54.73;16.60;;;;;;;;;;5046136;28;20200;-89
2022/11/12 16:29:11;;;;;;;27.03;15.30;;;;;;;;;;5043817;28;20215;-91
2022/11/12 16:32:33;;;;;;;138.30;18.30;;;;;;;;;;5048945;28;20212;-90
2022/11/12 16:35:56;;;;;;;66.40;18.23;;;;;;;;;;5027924;28;20204;-91
2022/11/12 16:39:18;;;;;;;32.27;18.57;;;;;;;;;;5028702;28;20220;-91
2022/11/12 16:42:49;;;;;;;33.27;19.33;;;;;;;;;;5045236;28;20192;-91
2022/11/12 16:46:27;;;;;;;35.47;17.53;;;;;;;;;;5057514;28;20649;-91
2022/11/12 16:49:50;;;;;;;55.80;16.87;;;;;;;;;;5035384;28;20228;-91
2022/11/12 16:53:13;;;;;;;23.10;15.23;;;;;;;;;;5056199;28;20220;-90
2022/11/12 16:56:36;;;;;;;27.83;15.50;;;;;;;;;;5036787;28;20612;-90
2022/11/12 16:59:59;;;;;;;32.43;18.23;;;;;;;;;;5015720;28;20177;-90
2022/11/12 17:03:21;;;;;;;28.23;16.80;;;;;;;;;;5028787;28;20181;-86
2022/11/12 17:06:44;;;;;;;26.07;16.17;;;;;;;;;;5014841;28;20189;-89
2022/11/12 17:10:07;;;;;;;42.37;16.13;;;;;;;;;;5026940;28;20185;-89
2022/11/12 17:13:30;;;;;;;25.07;16.47;;;;;;;;;;5014676;28;20217;-89
2022/11/12 17:16:55;;;;;;;26.47;16.77;;;;;;;;;;5027403;28;20556;-90
2022/11/12 17:20:18;;;;;;;27.27;15.47;;;;;;;;;;5023140;28;20185;-89
2022/11/12 17:23:41;;;;;;;38.77;15.03;;;;;;;;;;5028817;28;20200;-89
2022/11/12 17:27:03;;;;;;;41.47;14.50;;;;;;;;;;5046427;28;20180;-89
2022/11/12 17:30:26;;;;;;;18.43;13.37;;;;;;;;;;5054892;28;20192;-89
2022/11/12 17:33:50;;;;;;;33.83;15.23;;;;;;;;;;5053941;28;20209;-88
2022/11/12 17:37:14;;;;;;;31.73;13.93;;;;;;;;;;5045316;28;20184;-89
2022/11/12 17:40:36;;;;;;;26.93;15.57;;;;;;;;;;5044939;28;20176;-89
2022/11/12 17:44:00;;;;;;;63.00;15.33;;;;;;;;;;5053608;28;20181;-89
2022/11/12 17:47:23;;;;;;;42.90;14.07;;;;;;;;;;5045150;28;20180;-89
2022/11/12 17:50:46;;;;;;;24.03;14.07;;;;;;;;;;5044760;28;20180;-89
2022/11/12 17:54:08;;;;;;;25.73;14.90;;;;;;;;;;5044814;28;20177;-89
2022/11/12 17:57:31;;;;;;;22.13;13.83;;;;;;;;;;5053510;28;20702;-89
2022/11/12 18:00:54;;;;;;;26.30;13.33;;;;;;;;;;5044825;28;20619;-89
2022/11/12 18:04:16;;;;;;;24.27;13.57;;;;;;;;;;5044674;28;20180;-89
2022/11/12 18:07:39;;;;;;;45.93;14.97;;;;;;;;;;5044428;28;20180;-89
2022/11/12 18:11:01;;;;;;;53.50;14.90;;;;;;;;;;5052805;28;20188;-89
2022/11/12 18:14:24;;;;;;;31.37;15.03;;;;;;;;;;5043821;28;20173;-89
2022/11/12 18:17:47;;;;;;;37.00;14.43;;;;;;;;;;5053063;28;20216;-89
2022/11/12 18:21:09;;;;;;;23.73;14.50;;;;;;;;;;5052928;28;20185;-89
2022/11/12 18:24:32;;;;;;;22.07;13.93;;;;;;;;;;5044063;28;20188;-89
2022/11/12 18:27:54;;;;;;;30.93;13.63;;;;;;;;;;5052583;28;20555;-89
2022/11/12 18:31:17;;;;;;;24.87;13.83;;;;;;;;;;5043805;28;20184;-89
2022/11/12 18:34:43;;;;;;;16.77;13.07;;;;;;;;;;5036307;28;20181;-89
2022/11/12 18:38:08;;;;;;;45.33;14.60;;;;;;;;;;5012609;28;20208;-89
2022/11/12 18:41:32;;;;;;;33.43;14.87;;;;;;;;;;5012837;28;20173;-90
2022/11/12 18:44:55;;;;;;;85.73;15.70;;;;;;;;;;5023801;28;20181;-89
2022/11/12 18:48:17;;;;;;;58.10;14.23;;;;;;;;;;5017167;28;20220;-89
2022/11/12 18:51:40;;;;;;;20.30;14.80;;;;;;;;;;5032054;28;20185;-90
2022/11/12 18:55:03;;;;;;;17.10;12.47;;;;;;;;;;5033912;28;20192;-89
2022/11/12 18:58:26;;;;;;;89.60;13.77;;;;;;;;;;5034171;28;20224;-90
2022/11/12 19:01:49;;;;;;;31.30;11.67;;;;;;;;;;5043534;22;20241;-88
2022/11/12 19:05:12;;;;;;;31.63;11.80;;;;;;;;;;5030000;28;20655;-88
2022/11/12 19:08:34;;;;;;;84.17;12.10;;;;;;;;;;5042333;28;20189;-88
2022/11/12 19:11:57;;;;;;;34.43;11.10;;;;;;;;;;5030245;28;20332;-87
2022/11/12 19:15:19;;;;;;;78.70;12.97;;;;;;;;;;5041781;28;20178;-87
2022/11/12 19:18:43;;;;;;;25.43;13.00;;;;;;;;;;5029480;28;20536;-87
2022/11/12 19:22:06;;;;;;;36.30;12.50;;;;;;;;;;5039996;28;20185;-88
2022/11/12 19:25:28;;;;;;;52.00;12.57;;;;;;;;;;5028123;28;20620;-88
2022/11/12 19:28:51;;;;;;;67.77;12.63;;;;;;;;;;5026892;28;20181;-88
2022/11/12 19:32:14;;;;;;;56.97;11.40;;;;;;;;;;5028930;28;20181;-87
2022/11/12 19:35:39;;;;;;;70.13;14.73;;;;;;;;;;5025469;28;20533;-87
2022/11/12 19:39:02;;;;;;;41.63;13.17;;;;;;;;;;5037029;28;20177;-88
2022/11/12 19:42:24;;;;;;;79.73;12.80;;;;;;;;;;5039582;28;20512;-89
2022/11/12 19:45:47;;;;;;;66.93;11.70;;;;;;;;;;5030478;28;20185;-88
2022/11/12 19:49:10;;;;;;;38.87;8.63;;;;;;;;;;5028118;28;20185;-87
2022/11/12 19:52:32;;;;;;;68.70;11.70;;;;;;;;;;5026901;28;20209;-87
2022/11/12 19:56:01;;;;;;;60.47;9.37;;;;;;;;;;5039415;28;20181;-87
2022/11/12 19:59:23;;;;;;;30.23;7.90;;;;;;;;;;5006947;28;20522;-87
2022/11/12 20:02:46;;;;;;;22.60;8.10;;;;;;;;;;5018022;28;20625;-88
2022/11/12 20:06:17;;;;;;;57.50;9.33;;;;;;;;;;5017452;28;20182;-87
2022/11/12 20:09:40;;;;;;;42.47;8.60;;;;;;;;;;5008160;28;20182;-87
2022/11/12 20:13:02;;;;;;;25.10;8.87;;;;;;;;;;5017428;28;20210;-87
2022/11/12 20:16:25;;;;;;;33.40;8.60;;;;;;;;;;5017296;28;20174;-88
2022/11/12 20:19:48;;;;;;;35.53;7.37;;;;;;;;;;5016839;28;20186;-87
2022/11/12 20:23:11;;;;;;;35.23;7.67;;;;;;;;;;5016616;28;20186;-87
2022/11/12 20:26:33;;;;;;;22.73;8.60;;;;;;;;;;5016899;28;20182;-87
2022/11/12 20:29:56;;;;;;;26.57;7.77;;;;;;;;;;5016894;28;20182;-87
2022/11/12 20:33:18;;;;;;;25.77;7.77;;;;;;;;;;5016698;28;20217;-88
2022/11/12 20:36:41;;;;;;;73.60;9.20;;;;;;;;;;4996591;28;20641;-87
2022/11/12 20:40:04;;;;;;;50.20;8.27;;;;;;;;;;5016865;28;20561;-88
2022/11/12 20:43:27;;;;;;;40.60;7.83;;;;;;;;;;5016197;28;20174;-87
2022/11/12 20:46:49;;;;;;;51.33;8.97;;;;;;;;;;5016469;28;20189;-87